sensor_id;sensor_type;location;lat;lon;timestamp;temperature;humidity
15113;DHT22;7657;50.140;7.076;2022-08-30T00:00:04;19.90;99.90
15113;DHT22;7657;50.140;7.076;2022-08-30T00:02:50;19.90;99.90
15113;DHT22;7657;50.140;7.076;2022-08-30T00:05:19;19.90;99.90
15113;DHT22;7657;50.140;7.076;2022-08-30T00:07:46;20.00;99.90
15113;DHT22;7657;50.140;7.076;2022-08-30T00:10:13;20.00;99.90
15113;DHT22;7657;50.140;7.076;2022-08-30T00:12:40;19.80;99.90
15113;DHT22;7657;50.140;7.076;2022-08-30T00:15:09;19.80;99.90
15113;DHT22;7657;50.140;7.076;2022-08-30T00:17:36;19.80;99.90
15113;DHT22;7657;50.140;7.076;2022-08-30T00:20:04;19.70;99.90
15113;DHT22;7657;50.140;7.076;2022-08-30T00:22:33;19.70;99.90
15113;DHT22;7657;50.140;7.076;2022-08-30T00:25:00;19.70;99.90
15113;DHT22;7657;50.140;7.076;2022-08-30T00:27:28;19.70;99.90
15113;DHT22;7657;50.140;7.076;2022-08-30T00:29:55;19.70;99.90
15113;DHT22;7657;50.140;7.076;2022-08-30T00:32:22;19.70;99.90
15113;DHT22;7657;50.140;7.076;2022-08-30T00:34:50;19.70;99.90
15113;DHT22;7657;50.140;7.076;2022-08-30T00:37:17;19.60;99.90
15113;DHT22;7657;50.140;7.076;2022-08-30T00:39:46;19.60;99.90
15113;DHT22;7657;50.140;7.076;2022-08-30T00:42:15;19.50;99.90
15113;DHT22;7657;50.140;7.076;2022-08-30T00:44:43;19.50;99.90
15113;DHT22;7657;50.140;7.076;2022-08-30T00:47:10;19.50;99.90
15113;DHT22;7657;50.140;7.076;2022-08-30T00:49:40;19.40;99.90
15113;DHT22;7657;50.140;7.076;2022-08-30T00:52:08;19.40;99.90
15113;DHT22;7657;50.140;7.076;2022-08-30T00:54:39;19.40;99.90
15113;DHT22;7657;50.140;7.076;2022-08-30T00:57:09;19.40;99.90
15113;DHT22;7657;50.140;7.076;2022-08-30T00:59:38;19.40;99.90
15113;DHT22;7657;50.140;7.076;2022-08-30T01:02:05;19.40;99.90
15113;DHT22;7657;50.140;7.076;2022-08-30T01:04:33;19.40;99.90
15113;DHT22;7657;50.140;7.076;2022-08-30T01:07:01;19.30;99.90
15113;DHT22;7657;50.140;7.076;2022-08-30T01:09:28;19.30;99.90
15113;DHT22;7657;50.140;7.076;2022-08-30T01:11:55;19.30;99.90
15113;DHT22;7657;50.140;7.076;2022-08-30T01:14:24;19.20;99.90
15113;DHT22;7657;50.140;7.076;2022-08-30T01:16:54;19.20;99.90
15113;DHT22;7657;50.140;7.076;2022-08-30T01:19:29;19.20;99.90
15113;DHT22;7657;50.140;7.076;2022-08-30T01:22:02;19.10;99.90
15113;DHT22;7657;50.140;7.076;2022-08-30T01:24:32;19.10;99.90
15113;DHT22;7657;50.140;7.076;2022-08-30T01:26:59;19.00;99.90
15113;DHT22;7657;50.140;7.076;2022-08-30T01:29:26;19.00;99.90
15113;DHT22;7657;50.140;7.076;2022-08-30T01:31:54;19.10;99.90
15113;DHT22;7657;50.140;7.076;2022-08-30T01:34:20;18.90;99.90
15113;DHT22;7657;50.140;7.076;2022-08-30T01:36:47;18.80;99.90
15113;DHT22;7657;50.140;7.076;2022-08-30T01:39:16;18.80;99.90
15113;DHT22;7657;50.140;7.076;2022-08-30T01:41:44;18.80;99.90
15113;DHT22;7657;50.140;7.076;2022-08-30T01:44:12;18.80;99.90
15113;DHT22;7657;50.140;7.076;2022-08-30T01:46:41;18.90;99.90
15113;DHT22;7657;50.140;7.076;2022-08-30T01:49:12;18.90;99.90
15113;DHT22;7657;50.140;7.076;2022-08-30T01:51:40;18.90;99.90
15113;DHT22;7657;50.140;7.076;2022-08-30T01:54:08;18.90;99.90
15113;DHT22;7657;50.140;7.076;2022-08-30T01:56:35;18.90;99.90
15113;DHT22;7657;50.140;7.076;2022-08-30T01:59:04;18.90;99.90
15113;DHT22;7657;50.140;7.076;2022-08-30T02:01:33;18.90;99.90
15113;DHT22;7657;50.140;7.076;2022-08-30T02:04:02;18.80;99.90
15113;DHT22;7657;50.140;7.076;2022-08-30T02:06:30;18.80;99.90
15113;DHT22;7657;50.140;7.076;2022-08-30T02:08:57;18.80;99.90
15113;DHT22;7657;50.140;7.076;2022-08-30T02:11:24;18.70;99.90
15113;DHT22;7657;50.140;7.076;2022-08-30T02:13:51;18.50;99.90
15113;DHT22;7657;50.140;7.076;2022-08-30T02:16:21;18.40;99.90
15113;DHT22;7657;50.140;7.076;2022-08-30T02:18:49;18.40;99.90
15113;DHT22;7657;50.140;7.076;2022-08-30T02:21:16;18.30;99.90
15113;DHT22;7657;50.140;7.076;2022-08-30T02:23:43;18.20;99.90
15113;DHT22;7657;50.140;7.076;2022-08-30T02:26:12;18.20;99.90
15113;DHT22;7657;50.140;7.076;2022-08-30T02:28:39;18.20;99.90
15113;DHT22;7657;50.140;7.076;2022-08-30T02:31:06;18.20;99.90
15113;DHT22;7657;50.140;7.076;2022-08-30T02:33:34;18.20;99.90
15113;DHT22;7657;50.140;7.076;2022-08-30T02:36:02;18.10;99.90
15113;DHT22;7657;50.140;7.076;2022-08-30T02:38:29;18.20;99.90
15113;DHT22;7657;50.140;7.076;2022-08-30T02:40:56;18.20;99.90
15113;DHT22;7657;50.140;7.076;2022-08-30T02:43:23;18.20;99.90
15113;DHT22;7657;50.140;7.076;2022-08-30T02:45:51;18.10;99.90
15113;DHT22;7657;50.140;7.076;2022-08-30T02:48:19;18.20;99.90
15113;DHT22;7657;50.140;7.076;2022-08-30T02:50:49;18.20;99.90
15113;DHT22;7657;50.140;7.076;2022-08-30T02:53:17;18.20;99.90
15113;DHT22;7657;50.140;7.076;2022-08-30T02:55:45;18.10;99.90
15113;DHT22;7657;50.140;7.076;2022-08-30T02:58:12;18.20;99.90
15113;DHT22;7657;50.140;7.076;2022-08-30T03:00:40;18.20;99.90
15113;DHT22;7657;50.140;7.076;2022-08-30T03:03:08;18.20;99.90
15113;DHT22;7657;50.140;7.076;2022-08-30T03:05:35;18.30;99.90
15113;DHT22;7657;50.140;7.076;2022-08-30T03:08:03;18.30;99.90
15113;DHT22;7657;50.140;7.076;2022-08-30T03:10:30;18.30;99.90
15113;DHT22;7657;50.140;7.076;2022-08-30T03:12:58;18.20;99.90
15113;DHT22;7657;50.140;7.076;2022-08-30T03:15:25;18.20;99.90
15113;DHT22;7657;50.140;7.076;2022-08-30T03:17:53;18.10;99.90
15113;DHT22;7657;50.140;7.076;2022-08-30T03:20:21;18.10;99.90
15113;DHT22;7657;50.140;7.076;2022-08-30T03:22:48;18.10;99.90
15113;DHT22;7657;50.140;7.076;2022-08-30T03:25:17;18.10;99.90
15113;DHT22;7657;50.140;7.076;2022-08-30T03:27:45;18.00;99.90
15113;DHT22;7657;50.140;7.076;2022-08-30T03:30:12;18.00;99.90
15113;DHT22;7657;50.140;7.076;2022-08-30T03:32:40;17.90;99.90
15113;DHT22;7657;50.140;7.076;2022-08-30T03:35:07;17.90;99.90
15113;DHT22;7657;50.140;7.076;2022-08-30T03:37:35;17.90;99.90
15113;DHT22;7657;50.140;7.076;2022-08-30T03:40:03;17.80;99.90
15113;DHT22;7657;50.140;7.076;2022-08-30T03:42:33;17.80;99.90
15113;DHT22;7657;50.140;7.076;2022-08-30T03:45:00;17.70;99.90
15113;DHT22;7657;50.140;7.076;2022-08-30T03:47:28;17.80;99.90
15113;DHT22;7657;50.140;7.076;2022-08-30T03:49:55;17.70;99.90
15113;DHT22;7657;50.140;7.076;2022-08-30T03:52:22;17.70;99.90
15113;DHT22;7657;50.140;7.076;2022-08-30T03:54:49;17.60;99.90
15113;DHT22;7657;50.140;7.076;2022-08-30T03:57:17;17.70;99.90
15113;DHT22;7657;50.140;7.076;2022-08-30T03:59:45;17.60;99.90
15113;DHT22;7657;50.140;7.076;2022-08-30T04:02:12;17.60;99.90
15113;DHT22;7657;50.140;7.076;2022-08-30T04:04:39;17.50;99.90
15113;DHT22;7657;50.140;7.076;2022-08-30T04:07:06;17.50;99.90
15113;DHT22;7657;50.140;7.076;2022-08-30T04:09:33;17.50;99.90
15113;DHT22;7657;50.140;7.076;2022-08-30T04:12:01;17.40;99.90
15113;DHT22;7657;50.140;7.076;2022-08-30T04:14:28;17.40;99.90
15113;DHT22;7657;50.140;7.076;2022-08-30T04:16:56;17.40;99.90
15113;DHT22;7657;50.140;7.076;2022-08-30T04:19:23;17.30;99.90
15113;DHT22;7657;50.140;7.076;2022-08-30T04:21:50;17.30;99.90
15113;DHT22;7657;50.140;7.076;2022-08-30T04:24:17;17.30;99.90
15113;DHT22;7657;50.140;7.076;2022-08-30T04:26:44;17.20;99.90
15113;DHT22;7657;50.140;7.076;2022-08-30T04:29:11;17.20;99.90
15113;DHT22;7657;50.140;7.076;2022-08-30T04:31:41;17.20;99.90
15113;DHT22;7657;50.140;7.076;2022-08-30T04:34:10;17.20;99.90
15113;DHT22;7657;50.140;7.076;2022-08-30T04:36:37;17.20;99.90
15113;DHT22;7657;50.140;7.076;2022-08-30T04:39:04;17.20;99.90
15113;DHT22;7657;50.140;7.076;2022-08-30T04:41:31;17.20;99.90
15113;DHT22;7657;50.140;7.076;2022-08-30T04:44:00;17.30;99.90
15113;DHT22;7657;50.140;7.076;2022-08-30T04:46:27;17.40;99.90
15113;DHT22;7657;50.140;7.076;2022-08-30T04:48:54;17.40;99.90
15113;DHT22;7657;50.140;7.076;2022-08-30T04:51:22;17.40;99.90
15113;DHT22;7657;50.140;7.076;2022-08-30T04:53:49;17.40;99.90
15113;DHT22;7657;50.140;7.076;2022-08-30T04:56:18;17.40;99.90
15113;DHT22;7657;50.140;7.076;2022-08-30T04:58:48;17.40;99.90
15113;DHT22;7657;50.140;7.076;2022-08-30T05:01:17;17.40;99.90
15113;DHT22;7657;50.140;7.076;2022-08-30T05:03:45;17.30;99.90
15113;DHT22;7657;50.140;7.076;2022-08-30T05:06:13;17.40;99.90
15113;DHT22;7657;50.140;7.076;2022-08-30T05:08:41;17.30;99.90
15113;DHT22;7657;50.140;7.076;2022-08-30T05:11:08;17.30;99.90
15113;DHT22;7657;50.140;7.076;2022-08-30T05:13:36;17.30;99.90
15113;DHT22;7657;50.140;7.076;2022-08-30T05:16:05;17.30;99.90
15113;DHT22;7657;50.140;7.076;2022-08-30T05:18:33;17.30;99.90
15113;DHT22;7657;50.140;7.076;2022-08-30T05:21:05;17.30;99.90
15113;DHT22;7657;50.140;7.076;2022-08-30T05:23:33;17.30;99.90
15113;DHT22;7657;50.140;7.076;2022-08-30T05:26:05;17.30;99.90
15113;DHT22;7657;50.140;7.076;2022-08-30T05:28:33;17.40;99.90
15113;DHT22;7657;50.140;7.076;2022-08-30T05:31:00;17.40;99.90
15113;DHT22;7657;50.140;7.076;2022-08-30T05:33:27;17.40;99.90
15113;DHT22;7657;50.140;7.076;2022-08-30T05:35:54;17.40;99.90
15113;DHT22;7657;50.140;7.076;2022-08-30T05:38:21;17.40;99.90
15113;DHT22;7657;50.140;7.076;2022-08-30T05:40:48;17.40;99.90
15113;DHT22;7657;50.140;7.076;2022-08-30T05:43:17;17.40;99.90
15113;DHT22;7657;50.140;7.076;2022-08-30T05:45:44;17.40;99.90
15113;DHT22;7657;50.140;7.076;2022-08-30T05:48:11;17.40;99.90
15113;DHT22;7657;50.140;7.076;2022-08-30T05:50:38;17.50;99.90
15113;DHT22;7657;50.140;7.076;2022-08-30T05:53:04;17.50;99.90
15113;DHT22;7657;50.140;7.076;2022-08-30T05:55:31;17.60;99.90
15113;DHT22;7657;50.140;7.076;2022-08-30T05:58:00;17.60;99.90
15113;DHT22;7657;50.140;7.076;2022-08-30T06:00:28;17.70;99.90
15113;DHT22;7657;50.140;7.076;2022-08-30T06:02:55;17.70;99.90
15113;DHT22;7657;50.140;7.076;2022-08-30T06:05:23;17.70;99.90
15113;DHT22;7657;50.140;7.076;2022-08-30T06:07:49;17.70;99.90
15113;DHT22;7657;50.140;7.076;2022-08-30T06:10:17;17.80;99.90
15113;DHT22;7657;50.140;7.076;2022-08-30T06:12:44;17.80;99.90
15113;DHT22;7657;50.140;7.076;2022-08-30T06:15:11;17.80;99.90
15113;DHT22;7657;50.140;7.076;2022-08-30T06:17:39;17.90;99.90
15113;DHT22;7657;50.140;7.076;2022-08-30T06:20:07;17.90;99.90
15113;DHT22;7657;50.140;7.076;2022-08-30T06:22:35;18.00;99.90
15113;DHT22;7657;50.140;7.076;2022-08-30T06:25:03;18.00;99.90
15113;DHT22;7657;50.140;7.076;2022-08-30T06:27:30;18.00;99.90
15113;DHT22;7657;50.140;7.076;2022-08-30T06:29:58;18.10;99.90
15113;DHT22;7657;50.140;7.076;2022-08-30T06:32:25;18.10;99.90
15113;DHT22;7657;50.140;7.076;2022-08-30T06:34:53;18.20;99.90
15113;DHT22;7657;50.140;7.076;2022-08-30T06:37:20;18.20;99.90
15113;DHT22;7657;50.140;7.076;2022-08-30T06:39:47;18.30;99.90
15113;DHT22;7657;50.140;7.076;2022-08-30T06:42:14;18.30;99.90
15113;DHT22;7657;50.140;7.076;2022-08-30T06:44:41;18.30;99.90
15113;DHT22;7657;50.140;7.076;2022-08-30T06:47:08;18.30;99.90
15113;DHT22;7657;50.140;7.076;2022-08-30T06:49:34;18.40;99.90
15113;DHT22;7657;50.140;7.076;2022-08-30T06:52:03;18.40;99.90
15113;DHT22;7657;50.140;7.076;2022-08-30T06:54:30;18.40;99.90
15113;DHT22;7657;50.140;7.076;2022-08-30T06:56:57;18.50;99.90
15113;DHT22;7657;50.140;7.076;2022-08-30T06:59:24;18.50;99.90
15113;DHT22;7657;50.140;7.076;2022-08-30T07:01:52;18.50;99.90
15113;DHT22;7657;50.140;7.076;2022-08-30T07:04:19;18.50;99.90
15113;DHT22;7657;50.140;7.076;2022-08-30T07:06:46;18.60;99.90
15113;DHT22;7657;50.140;7.076;2022-08-30T07:09:14;18.60;99.90
15113;DHT22;7657;50.140;7.076;2022-08-30T07:11:41;18.60;99.90
15113;DHT22;7657;50.140;7.076;2022-08-30T07:14:09;18.60;99.90
15113;DHT22;7657;50.140;7.076;2022-08-30T07:16:36;18.60;99.90
15113;DHT22;7657;50.140;7.076;2022-08-30T07:19:04;18.70;99.90
15113;DHT22;7657;50.140;7.076;2022-08-30T07:21:34;18.70;99.90
15113;DHT22;7657;50.140;7.076;2022-08-30T07:24:03;18.70;99.90
15113;DHT22;7657;50.140;7.076;2022-08-30T07:26:34;18.70;99.90
15113;DHT22;7657;50.140;7.076;2022-08-30T07:29:02;18.80;99.90
15113;DHT22;7657;50.140;7.076;2022-08-30T07:31:30;18.80;99.90
15113;DHT22;7657;50.140;7.076;2022-08-30T07:33:57;18.80;99.90
15113;DHT22;7657;50.140;7.076;2022-08-30T07:36:24;18.80;99.90
15113;DHT22;7657;50.140;7.076;2022-08-30T07:38:52;18.90;99.90
15113;DHT22;7657;50.140;7.076;2022-08-30T07:41:21;18.90;99.90
15113;DHT22;7657;50.140;7.076;2022-08-30T07:43:50;19.00;99.90
15113;DHT22;7657;50.140;7.076;2022-08-30T07:46:17;19.00;99.90
15113;DHT22;7657;50.140;7.076;2022-08-30T07:48:45;19.00;99.90
15113;DHT22;7657;50.140;7.076;2022-08-30T07:51:14;19.10;99.90
15113;DHT22;7657;50.140;7.076;2022-08-30T07:53:42;19.20;99.90
15113;DHT22;7657;50.140;7.076;2022-08-30T07:56:09;19.20;99.90
15113;DHT22;7657;50.140;7.076;2022-08-30T07:58:36;19.20;99.90
15113;DHT22;7657;50.140;7.076;2022-08-30T08:01:06;19.20;99.90
15113;DHT22;7657;50.140;7.076;2022-08-30T08:03:34;19.20;99.90
15113;DHT22;7657;50.140;7.076;2022-08-30T08:06:02;19.20;99.90
15113;DHT22;7657;50.140;7.076;2022-08-30T08:08:30;19.20;99.90
15113;DHT22;7657;50.140;7.076;2022-08-30T08:11:05;19.20;99.90
15113;DHT22;7657;50.140;7.076;2022-08-30T08:13:33;19.20;99.90
15113;DHT22;7657;50.140;7.076;2022-08-30T08:16:00;19.20;99.90
15113;DHT22;7657;50.140;7.076;2022-08-30T08:18:28;19.20;99.90
15113;DHT22;7657;50.140;7.076;2022-08-30T08:20:56;19.20;99.90
15113;DHT22;7657;50.140;7.076;2022-08-30T08:23:23;19.20;99.90
15113;DHT22;7657;50.140;7.076;2022-08-30T08:25:50;19.30;99.90
15113;DHT22;7657;50.140;7.076;2022-08-30T08:28:17;19.30;99.90
15113;DHT22;7657;50.140;7.076;2022-08-30T08:30:45;19.40;99.90
15113;DHT22;7657;50.140;7.076;2022-08-30T08:33:12;19.40;99.90
15113;DHT22;7657;50.140;7.076;2022-08-30T08:35:40;19.50;99.90
15113;DHT22;7657;50.140;7.076;2022-08-30T08:38:08;19.50;99.90
15113;DHT22;7657;50.140;7.076;2022-08-30T08:40:37;19.60;99.90
15113;DHT22;7657;50.140;7.076;2022-08-30T08:43:11;19.60;99.90
15113;DHT22;7657;50.140;7.076;2022-08-30T08:45:44;19.70;99.90
15113;DHT22;7657;50.140;7.076;2022-08-30T08:48:19;19.80;99.90
15113;DHT22;7657;50.140;7.076;2022-08-30T08:50:50;19.80;99.90
15113;DHT22;7657;50.140;7.076;2022-08-30T08:53:33;19.90;99.90
15113;DHT22;7657;50.140;7.076;2022-08-30T08:56:04;19.90;99.90
15113;DHT22;7657;50.140;7.076;2022-08-30T08:58:40;19.90;99.90
15113;DHT22;7657;50.140;7.076;2022-08-30T09:01:09;20.00;99.90
15113;DHT22;7657;50.140;7.076;2022-08-30T09:03:36;20.00;99.90
15113;DHT22;7657;50.140;7.076;2022-08-30T09:06:21;20.00;99.90
15113;DHT22;7657;50.140;7.076;2022-08-30T09:08:49;20.00;99.90
15113;DHT22;7657;50.140;7.076;2022-08-30T09:11:33;20.10;99.90
15113;DHT22;7657;50.140;7.076;2022-08-30T09:14:00;20.20;99.90
15113;DHT22;7657;50.140;7.076;2022-08-30T09:16:49;20.20;99.90
15113;DHT22;7657;50.140;7.076;2022-08-30T09:19:34;20.30;99.90
15113;DHT22;7657;50.140;7.076;2022-08-30T09:22:11;20.30;99.90
15113;DHT22;7657;50.140;7.076;2022-08-30T09:24:42;20.40;99.90
15113;DHT22;7657;50.140;7.076;2022-08-30T09:27:21;20.40;99.90
15113;DHT22;7657;50.140;7.076;2022-08-30T09:29:58;20.50;99.90
15113;DHT22;7657;50.140;7.076;2022-08-30T09:32:37;20.50;99.90
15113;DHT22;7657;50.140;7.076;2022-08-30T09:35:08;20.60;99.90
15113;DHT22;7657;50.140;7.076;2022-08-30T09:37:45;20.60;99.90
15113;DHT22;7657;50.140;7.076;2022-08-30T09:40:21;20.70;99.90
15113;DHT22;7657;50.140;7.076;2022-08-30T09:43:07;20.70;99.90
15113;DHT22;7657;50.140;7.076;2022-08-30T09:45:37;20.80;99.90
15113;DHT22;7657;50.140;7.076;2022-08-30T09:48:26;20.80;99.90
15113;DHT22;7657;50.140;7.076;2022-08-30T09:53:47;20.90;99.90
15113;DHT22;7657;50.140;7.076;2022-08-30T09:56:23;20.90;99.90
15113;DHT22;7657;50.140;7.076;2022-08-30T09:59:01;21.00;99.90
15113;DHT22;7657;50.140;7.076;2022-08-30T10:01:31;21.10;99.90
15113;DHT22;7657;50.140;7.076;2022-08-30T10:04:03;21.10;99.90
15113;DHT22;7657;50.140;7.076;2022-08-30T10:06:37;21.20;99.90
15113;DHT22;7657;50.140;7.076;2022-08-30T10:09:20;21.20;99.90
15113;DHT22;7657;50.140;7.076;2022-08-30T10:11:53;21.20;99.90
15113;DHT22;7657;50.140;7.076;2022-08-30T10:14:34;21.30;99.90
15113;DHT22;7657;50.140;7.076;2022-08-30T10:17:10;21.30;99.90
15113;DHT22;7657;50.140;7.076;2022-08-30T10:20:03;21.40;99.90
15113;DHT22;7657;50.140;7.076;2022-08-30T10:22:34;21.50;99.90
15113;DHT22;7657;50.140;7.076;2022-08-30T10:25:09;21.50;99.90
15113;DHT22;7657;50.140;7.076;2022-08-30T10:27:41;21.50;99.90
15113;DHT22;7657;50.140;7.076;2022-08-30T10:30:11;21.60;99.90
15113;DHT22;7657;50.140;7.076;2022-08-30T10:32:45;21.70;99.90
15113;DHT22;7657;50.140;7.076;2022-08-30T10:35:15;21.70;99.90
15113;DHT22;7657;50.140;7.076;2022-08-30T10:37:46;21.80;99.90
15113;DHT22;7657;50.140;7.076;2022-08-30T10:40:19;21.90;99.90
15113;DHT22;7657;50.140;7.076;2022-08-30T10:43:24;21.90;99.90
15113;DHT22;7657;50.140;7.076;2022-08-30T10:45:55;22.00;99.90
15113;DHT22;7657;50.140;7.076;2022-08-30T10:48:26;22.00;99.90
15113;DHT22;7657;50.140;7.076;2022-08-30T10:50:59;22.00;99.90
15113;DHT22;7657;50.140;7.076;2022-08-30T10:53:31;22.10;99.90
15113;DHT22;7657;50.140;7.076;2022-08-30T10:56:06;22.10;99.90
15113;DHT22;7657;50.140;7.076;2022-08-30T10:58:36;22.20;99.90
15113;DHT22;7657;50.140;7.076;2022-08-30T11:01:32;22.20;99.90
15113;DHT22;7657;50.140;7.076;2022-08-30T11:04:35;22.30;99.90
15113;DHT22;7657;50.140;7.076;2022-08-30T11:07:13;22.30;99.90
15113;DHT22;7657;50.140;7.076;2022-08-30T11:10:01;22.30;99.90
15113;DHT22;7657;50.140;7.076;2022-08-30T11:12:34;22.40;99.90
15113;DHT22;7657;50.140;7.076;2022-08-30T11:15:14;22.40;99.90
15113;DHT22;7657;50.140;7.076;2022-08-30T11:17:46;22.40;99.90
15113;DHT22;7657;50.140;7.076;2022-08-30T11:20:29;22.50;99.90
15113;DHT22;7657;50.140;7.076;2022-08-30T11:23:30;22.50;99.90
15113;DHT22;7657;50.140;7.076;2022-08-30T11:26:00;22.60;99.90
15113;DHT22;7657;50.140;7.076;2022-08-30T11:29:02;22.70;99.90
15113;DHT22;7657;50.140;7.076;2022-08-30T11:31:39;22.80;99.90
15113;DHT22;7657;50.140;7.076;2022-08-30T11:34:07;22.80;99.90
15113;DHT22;7657;50.140;7.076;2022-08-30T11:37:04;22.80;99.90
15113;DHT22;7657;50.140;7.076;2022-08-30T11:39:52;22.80;99.90
15113;DHT22;7657;50.140;7.076;2022-08-30T11:42:32;22.90;99.90
15113;DHT22;7657;50.140;7.076;2022-08-30T11:48:05;22.90;99.90
15113;DHT22;7657;50.140;7.076;2022-08-30T11:50:40;23.00;99.90
15113;DHT22;7657;50.140;7.076;2022-08-30T11:53:19;23.00;99.90
15113;DHT22;7657;50.140;7.076;2022-08-30T11:55:57;23.00;99.90
15113;DHT22;7657;50.140;7.076;2022-08-30T11:58:41;23.10;99.90
15113;DHT22;7657;50.140;7.076;2022-08-30T12:01:32;23.30;99.90
15113;DHT22;7657;50.140;7.076;2022-08-30T12:04:04;23.30;99.90
15113;DHT22;7657;50.140;7.076;2022-08-30T12:06:47;23.40;99.90
15113;DHT22;7657;50.140;7.076;2022-08-30T12:12:49;23.50;99.90
15113;DHT22;7657;50.140;7.076;2022-08-30T12:15:51;23.60;99.90
15113;DHT22;7657;50.140;7.076;2022-08-30T12:18:26;23.70;99.90
15113;DHT22;7657;50.140;7.076;2022-08-30T12:20:56;23.80;99.90
15113;DHT22;7657;50.140;7.076;2022-08-30T12:23:33;23.80;99.90
15113;DHT22;7657;50.140;7.076;2022-08-30T12:26:29;23.90;99.90
15113;DHT22;7657;50.140;7.076;2022-08-30T12:29:16;23.90;99.90
15113;DHT22;7657;50.140;7.076;2022-08-30T12:31:46;23.90;99.90
15113;DHT22;7657;50.140;7.076;2022-08-30T12:34:21;24.00;99.90
15113;DHT22;7657;50.140;7.076;2022-08-30T12:36:54;24.10;99.90
15113;DHT22;7657;50.140;7.076;2022-08-30T12:39:26;24.10;99.90
15113;DHT22;7657;50.140;7.076;2022-08-30T12:41:53;24.10;99.90
15113;DHT22;7657;50.140;7.076;2022-08-30T12:44:22;24.20;99.90
15113;DHT22;7657;50.140;7.076;2022-08-30T12:46:53;24.20;99.90
15113;DHT22;7657;50.140;7.076;2022-08-30T12:49:23;24.30;99.90
15113;DHT22;7657;50.140;7.076;2022-08-30T12:51:53;24.30;99.90
15113;DHT22;7657;50.140;7.076;2022-08-30T12:54:23;24.40;99.90
15113;DHT22;7657;50.140;7.076;2022-08-30T12:56:57;24.60;99.90
15113;DHT22;7657;50.140;7.076;2022-08-30T12:59:45;24.60;99.90
15113;DHT22;7657;50.140;7.076;2022-08-30T13:02:15;24.70;99.90
15113;DHT22;7657;50.140;7.076;2022-08-30T13:04:43;24.90;99.90
15113;DHT22;7657;50.140;7.076;2022-08-30T13:07:26;24.90;99.90
15113;DHT22;7657;50.140;7.076;2022-08-30T13:10:12;25.10;99.90
15113;DHT22;7657;50.140;7.076;2022-08-30T13:12:40;25.20;99.90
15113;DHT22;7657;50.140;7.076;2022-08-30T13:15:28;25.30;99.90
15113;DHT22;7657;50.140;7.076;2022-08-30T13:18:12;25.50;99.90
15113;DHT22;7657;50.140;7.076;2022-08-30T13:20:41;25.80;99.90
15113;DHT22;7657;50.140;7.076;2022-08-30T13:23:10;26.00;99.50
15113;DHT22;7657;50.140;7.076;2022-08-30T13:25:38;26.20;99.80
15113;DHT22;7657;50.140;7.076;2022-08-30T13:28:06;26.50;99.70
15113;DHT22;7657;50.140;7.076;2022-08-30T13:30:33;26.70;97.80
15113;DHT22;7657;50.140;7.076;2022-08-30T13:33:00;27.00;98.40
15113;DHT22;7657;50.140;7.076;2022-08-30T13:35:28;27.30;98.00
15113;DHT22;7657;50.140;7.076;2022-08-30T13:37:56;27.50;97.40
15113;DHT22;7657;50.140;7.076;2022-08-30T13:40:25;27.70;96.10
15113;DHT22;7657;50.140;7.076;2022-08-30T13:42:51;27.60;95.30
15113;DHT22;7657;50.140;7.076;2022-08-30T13:45:19;27.50;95.30
15113;DHT22;7657;50.140;7.076;2022-08-30T13:47:47;27.50;95.40
15113;DHT22;7657;50.140;7.076;2022-08-30T13:50:15;27.40;94.60
15113;DHT22;7657;50.140;7.076;2022-08-30T13:52:42;27.50;95.40
15113;DHT22;7657;50.140;7.076;2022-08-30T13:55:09;27.60;94.50
15113;DHT22;7657;50.140;7.076;2022-08-30T13:57:39;27.60;93.70
15113;DHT22;7657;50.140;7.076;2022-08-30T14:00:10;27.80;94.40
15113;DHT22;7657;50.140;7.076;2022-08-30T14:02:38;28.10;93.70
15113;DHT22;7657;50.140;7.076;2022-08-30T14:05:07;28.50;93.00
15113;DHT22;7657;50.140;7.076;2022-08-30T14:07:34;28.80;92.40
15113;DHT22;7657;50.140;7.076;2022-08-30T14:10:01;28.90;91.60
15113;DHT22;7657;50.140;7.076;2022-08-30T14:12:28;29.10;91.30
15113;DHT22;7657;50.140;7.076;2022-08-30T14:14:56;29.40;90.40
15113;DHT22;7657;50.140;7.076;2022-08-30T14:17:23;29.30;90.00
15113;DHT22;7657;50.140;7.076;2022-08-30T14:19:54;29.40;89.50
15113;DHT22;7657;50.140;7.076;2022-08-30T14:22:21;29.50;88.70
15113;DHT22;7657;50.140;7.076;2022-08-30T14:24:48;29.60;87.10
15113;DHT22;7657;50.140;7.076;2022-08-30T14:27:15;29.80;85.60
15113;DHT22;7657;50.140;7.076;2022-08-30T14:29:42;29.80;84.90
15113;DHT22;7657;50.140;7.076;2022-08-30T14:32:10;30.20;86.00
15113;DHT22;7657;50.140;7.076;2022-08-30T14:34:37;30.30;82.20
15113;DHT22;7657;50.140;7.076;2022-08-30T14:37:04;30.20;81.20
15113;DHT22;7657;50.140;7.076;2022-08-30T14:39:32;30.30;80.30
15113;DHT22;7657;50.140;7.076;2022-08-30T14:41:59;30.40;79.80
15113;DHT22;7657;50.140;7.076;2022-08-30T14:44:26;30.60;80.50
15113;DHT22;7657;50.140;7.076;2022-08-30T14:46:53;30.70;78.70
15113;DHT22;7657;50.140;7.076;2022-08-30T14:49:22;31.20;79.60
15113;DHT22;7657;50.140;7.076;2022-08-30T14:51:49;31.50;77.40
15113;DHT22;7657;50.140;7.076;2022-08-30T14:54:20;31.90;76.60
15113;DHT22;7657;50.140;7.076;2022-08-30T14:56:47;32.40;75.50
15113;DHT22;7657;50.140;7.076;2022-08-30T14:59:14;32.70;73.70
15113;DHT22;7657;50.140;7.076;2022-08-30T15:01:44;33.10;72.80
15113;DHT22;7657;50.140;7.076;2022-08-30T15:04:11;33.30;69.90
15113;DHT22;7657;50.140;7.076;2022-08-30T15:06:42;33.30;68.40
15113;DHT22;7657;50.140;7.076;2022-08-30T15:09:12;33.10;66.80
15113;DHT22;7657;50.140;7.076;2022-08-30T15:11:39;33.00;66.00
15113;DHT22;7657;50.140;7.076;2022-08-30T15:14:08;32.60;65.50
15113;DHT22;7657;50.140;7.076;2022-08-30T15:16:37;32.50;65.40
15113;DHT22;7657;50.140;7.076;2022-08-30T15:19:07;32.60;64.80
15113;DHT22;7657;50.140;7.076;2022-08-30T15:21:36;32.80;63.90
15113;DHT22;7657;50.140;7.076;2022-08-30T15:24:07;33.20;63.40
15113;DHT22;7657;50.140;7.076;2022-08-30T15:26:34;33.40;62.90
15113;DHT22;7657;50.140;7.076;2022-08-30T15:29:05;33.80;63.10
15113;DHT22;7657;50.140;7.076;2022-08-30T15:31:33;34.10;61.60
15113;DHT22;7657;50.140;7.076;2022-08-30T15:34:00;34.40;60.40
15113;DHT22;7657;50.140;7.076;2022-08-30T15:36:28;34.70;59.40
15113;DHT22;7657;50.140;7.076;2022-08-30T15:38:56;35.20;58.80
15113;DHT22;7657;50.140;7.076;2022-08-30T15:41:26;35.40;57.60
15113;DHT22;7657;50.140;7.076;2022-08-30T15:43:53;35.50;57.10
15113;DHT22;7657;50.140;7.076;2022-08-30T15:46:23;35.40;56.50
15113;DHT22;7657;50.140;7.076;2022-08-30T15:48:52;35.60;56.10
15113;DHT22;7657;50.140;7.076;2022-08-30T15:51:21;35.80;55.80
15113;DHT22;7657;50.140;7.076;2022-08-30T15:53:49;36.00;54.90
15113;DHT22;7657;50.140;7.076;2022-08-30T15:56:16;36.10;54.20
15113;DHT22;7657;50.140;7.076;2022-08-30T15:58:45;36.30;53.50
15113;DHT22;7657;50.140;7.076;2022-08-30T16:01:13;36.70;53.50
15113;DHT22;7657;50.140;7.076;2022-08-30T16:03:41;37.00;52.40
15113;DHT22;7657;50.140;7.076;2022-08-30T16:06:11;36.90;51.00
15113;DHT22;7657;50.140;7.076;2022-08-30T16:08:38;37.10;50.60
15113;DHT22;7657;50.140;7.076;2022-08-30T16:11:06;37.50;50.50
15113;DHT22;7657;50.140;7.076;2022-08-30T16:13:33;37.80;49.70